createdAt,value
2019-01-04T00:01:21.997Z,-2.30
2019-01-04T00:03:51.915Z,-2.20
2019-01-04T00:06:21.780Z,-2.30
2019-01-04T00:08:52.065Z,-2.20
2019-01-04T00:11:21.988Z,-2.30
2019-01-04T00:13:51.855Z,-2.40
2019-01-04T00:16:22.103Z,-2.30
2019-01-04T00:18:52.429Z,-2.40
2019-01-04T00:21:22.315Z,-2.30
2019-01-04T00:23:52.522Z,-2.20
2019-01-04T00:26:22.465Z,-2.20
2019-01-04T00:28:52.284Z,-2.20
2019-01-04T00:31:22.517Z,-2.30
2019-01-04T00:33:52.531Z,-2.40
2019-01-04T00:36:22.378Z,-2.40
2019-01-04T00:38:52.674Z,-2.20
2019-01-04T00:41:22.597Z,-2.10
2019-01-04T00:43:52.482Z,-2.20
2019-01-04T00:46:22.820Z,-2.30
2019-01-04T00:48:53.276Z,-2.40
2019-01-04T00:51:23.497Z,-2.40
2019-01-04T00:53:53.339Z,-2.40
2019-01-04T00:57:17.006Z,-2.40
2019-01-04T01:00:44.434Z,-2.40
2019-01-04T01:03:59.918Z,-2.50
2019-01-04T01:07:09.191Z,-2.50
2019-01-04T01:10:28.320Z,-2.50
2019-01-04T01:13:31.910Z,-2.40
2019-01-04T01:16:52.855Z,-2.20
2019-01-04T01:20:08.562Z,-2.30
2019-01-04T01:23:14.284Z,-2.30
2019-01-04T01:26:42.898Z,-2.20
2019-01-04T01:30:00.415Z,-2.30
2019-01-04T01:32:54.577Z,-2.30
2019-01-04T01:36:05.674Z,-2.30
2019-01-04T01:39:18.009Z,-2.30
2019-01-04T01:42:23.935Z,-2.30
2019-01-04T01:45:30.085Z,-2.20
2019-01-04T01:48:16.105Z,-2.30
2019-01-04T01:51:24.210Z,-2.30
2019-01-04T01:53:54.545Z,-2.30
2019-01-04T01:56:24.442Z,-2.20
2019-01-04T01:58:54.307Z,-2.20
2019-01-04T02:01:24.305Z,-2.20
2019-01-04T02:03:54.466Z,-2.30
2019-01-04T02:06:24.357Z,-2.30
2019-01-04T02:08:54.872Z,-2.20
2019-01-04T02:11:24.762Z,-2.30
2019-01-04T02:13:54.696Z,-2.30
2019-01-04T02:16:24.914Z,-2.20
2019-01-04T02:18:54.856Z,-2.20
2019-01-04T02:21:24.757Z,-2.20
2019-01-04T02:23:55.065Z,-2.20
2019-01-04T02:26:24.900Z,-2.20
2019-01-04T02:28:54.810Z,-2.10
2019-01-04T02:31:25.133Z,-2.10
2019-01-04T02:33:55.380Z,-2.20
2019-01-04T02:36:25.265Z,-2.20
2019-01-04T02:38:56.112Z,-2.20
2019-01-04T02:41:25.999Z,-2.20
2019-01-04T02:43:55.889Z,-2.10
2019-01-04T02:46:26.473Z,-2.10
2019-01-04T02:48:56.370Z,-2.10
2019-01-04T02:51:26.645Z,-2.00
2019-01-04T02:53:56.961Z,-2.00
2019-01-04T02:56:26.770Z,-2.00
2019-01-04T02:58:56.633Z,-2.00
2019-01-04T03:01:26.886Z,-1.90
2019-01-04T03:03:56.785Z,-1.90
2019-01-04T03:06:27.318Z,-1.90
2019-01-04T03:08:57.504Z,-1.90
2019-01-04T03:11:27.396Z,-1.80
2019-01-04T03:13:57.584Z,-1.90
2019-01-04T03:16:27.803Z,-1.90
2019-01-04T03:18:57.659Z,-1.90
2019-01-04T03:21:28.241Z,-1.90
2019-01-04T03:23:58.170Z,-1.80
2019-01-04T03:26:27.989Z,-1.80
2019-01-04T03:28:58.294Z,-1.80
2019-01-04T03:31:28.535Z,-1.70
2019-01-04T03:33:58.419Z,-1.80
2019-01-04T03:36:28.981Z,-1.70
2019-01-04T03:38:59.185Z,-1.80
2019-01-04T03:41:29.620Z,-1.70
2019-01-04T03:43:59.448Z,-1.70
2019-01-04T03:46:29.864Z,-1.70
2019-01-04T03:49:00.196Z,-1.70
2019-01-04T03:51:30.451Z,-1.70
2019-01-04T03:54:00.334Z,-1.60
2019-01-04T03:56:30.531Z,-1.70
2019-01-04T03:59:00.446Z,-1.70
2019-01-04T04:01:30.382Z,-1.70
2019-01-04T04:04:00.362Z,-1.70
2019-01-04T04:06:30.338Z,-1.60
2019-01-04T04:09:00.231Z,-1.70
2019-01-04T04:11:30.544Z,-1.70
2019-01-04T04:14:00.371Z,-1.70
2019-01-04T04:16:30.691Z,-1.60
2019-01-04T04:19:00.922Z,-1.60
2019-01-04T04:21:31.107Z,-1.60
2019-01-04T04:24:01.151Z,-1.50
2019-01-04T04:26:31.036Z,-1.40
2019-01-04T04:29:00.916Z,-1.30
2019-01-04T04:31:31.506Z,-1.20
2019-01-04T04:34:01.347Z,-1.20
2019-01-04T04:36:31.555Z,-1.30
2019-01-04T04:39:01.766Z,-1.30
2019-01-04T04:41:31.647Z,-1.30
2019-01-04T04:44:01.497Z,-1.20
2019-01-04T04:46:32.085Z,-1.30
2019-01-04T04:49:02.005Z,-1.30
2019-01-04T04:51:31.957Z,-1.30
2019-01-04T04:54:01.916Z,-1.30
2019-01-04T04:56:31.768Z,-1.20
2019-01-04T04:59:02.000Z,-1.20
2019-01-04T05:01:32.544Z,-1.10
2019-01-04T05:04:02.426Z,-1.10
2019-01-04T05:06:32.592Z,-1.00
2019-01-04T05:09:02.914Z,-0.90
2019-01-04T05:11:32.961Z,-0.90
2019-01-04T05:14:02.913Z,-0.70
2019-01-04T05:16:33.251Z,-0.70
2019-01-04T05:19:03.604Z,-0.60
2019-01-04T05:21:33.818Z,-0.30
2019-01-04T05:24:03.728Z,-0.20
2019-01-04T05:26:33.601Z,-0.20
2019-01-04T05:29:03.671Z,-0.20
2019-01-04T05:31:33.674Z,-0.30
2019-01-04T05:34:03.526Z,-0.30
2019-01-04T05:36:33.836Z,-0.30
2019-01-04T05:39:05.580Z,-0.40
2019-01-04T05:41:35.904Z,-0.40
2019-01-04T05:44:05.791Z,-0.60
2019-01-04T05:46:36.122Z,-0.70
2019-01-04T05:49:06.079Z,-0.80
2019-01-04T05:51:35.913Z,-0.80
2019-01-04T05:54:06.606Z,-0.70
2019-01-04T05:56:36.496Z,-0.60
2019-01-04T05:59:06.698Z,-0.70
2019-01-04T06:01:36.957Z,-0.70
2019-01-04T06:04:06.784Z,-0.70
2019-01-04T06:06:36.666Z,-0.60
2019-01-04T06:09:09.184Z,-0.40
2019-01-04T06:11:39.062Z,-0.50
2019-01-04T06:14:08.973Z,-0.40
2019-01-04T06:16:39.426Z,-0.40
2019-01-04T06:19:09.249Z,-0.50
2019-01-04T06:21:39.229Z,-0.40
2019-01-04T06:24:09.994Z,-0.40
2019-01-04T06:26:39.819Z,-0.40
2019-01-04T06:29:09.694Z,-0.30
2019-01-04T06:31:40.269Z,-0.10
2019-01-04T06:34:10.122Z,-0.10
2019-01-04T06:36:40.018Z,-0.10
2019-01-04T06:39:10.836Z,-0.20
2019-01-04T06:41:40.714Z,-0.20
2019-01-04T06:44:10.604Z,-0.20
2019-01-04T06:47:11.406Z,-0.20
2019-01-04T06:49:41.277Z,0.00
2019-01-04T06:52:11.152Z,0.00
2019-01-04T06:55:17.382Z,0.20
2019-01-04T06:57:47.208Z,0.30
2019-01-04T07:00:17.322Z,0.50
2019-01-04T07:02:47.556Z,0.50
2019-01-04T07:05:17.450Z,0.40
2019-01-04T07:07:47.325Z,0.30
2019-01-04T07:10:17.790Z,0.40
2019-01-04T07:12:47.685Z,0.50
2019-01-04T07:15:18.157Z,0.70
2019-01-04T07:17:48.013Z,0.70
2019-01-04T07:20:17.886Z,0.80
2019-01-04T07:22:48.198Z,0.80
2019-01-04T07:25:18.398Z,0.80
2019-01-04T07:27:48.269Z,0.90
2019-01-04T07:30:18.961Z,0.80
2019-01-04T07:32:49.160Z,0.80
2019-01-04T07:35:19.020Z,0.90
2019-01-04T07:37:49.142Z,0.90
2019-01-04T07:40:19.346Z,0.90
2019-01-04T07:42:49.218Z,0.90
2019-01-04T07:45:19.107Z,0.80
2019-01-04T07:47:49.405Z,0.90
2019-01-04T07:50:19.305Z,0.90
2019-01-04T07:52:49.307Z,1.00
2019-01-04T07:55:19.544Z,1.10
2019-01-04T07:57:49.789Z,1.10
2019-01-04T08:00:19.674Z,1.00
2019-01-04T08:02:51.654Z,1.10
2019-01-04T08:05:23.123Z,1.10
2019-01-04T08:07:53.943Z,1.20
2019-01-04T08:10:23.992Z,1.10
2019-01-04T08:12:54.219Z,1.10
2019-01-04T08:15:24.525Z,1.10
2019-01-04T08:17:54.367Z,1.20
2019-01-04T08:20:24.302Z,1.20
2019-01-04T08:22:54.570Z,1.30
2019-01-04T08:25:24.562Z,1.40
2019-01-04T08:27:54.826Z,1.50
2019-01-04T08:30:24.883Z,1.40
2019-01-04T08:32:54.792Z,1.20
2019-01-04T08:35:24.693Z,1.00
2019-01-04T08:37:54.758Z,0.90
2019-01-04T08:40:24.631Z,0.70
2019-01-04T08:42:54.929Z,0.80
2019-01-04T08:45:25.252Z,0.90
2019-01-04T08:47:55.092Z,0.70
2019-01-04T08:50:25.022Z,0.60
2019-01-04T08:52:55.526Z,0.60
2019-01-04T08:55:34.510Z,0.60
2019-01-04T08:58:04.826Z,0.70
2019-01-04T09:00:34.735Z,0.90
2019-01-04T09:03:04.622Z,1.20
2019-01-04T09:05:34.895Z,1.40
2019-01-04T09:08:04.806Z,1.30
2019-01-04T09:10:34.704Z,1.30
2019-01-04T09:13:04.754Z,1.40
2019-01-04T09:15:34.628Z,1.40
2019-01-04T09:18:04.718Z,1.40
2019-01-04T09:20:34.984Z,1.50
2019-01-04T09:23:04.858Z,1.50
2019-01-04T09:25:34.768Z,1.70
2019-01-04T09:28:04.876Z,1.80
2019-01-04T09:30:34.759Z,1.80
2019-01-04T09:33:04.662Z,1.80
2019-01-04T09:35:34.814Z,1.80
2019-01-04T09:38:04.675Z,1.90
2019-01-04T09:40:34.536Z,2.00
2019-01-04T09:43:04.712Z,2.10
2019-01-04T09:45:34.613Z,2.20
2019-01-04T09:48:04.501Z,2.20
2019-01-04T09:50:34.723Z,2.20
2019-01-04T09:53:04.678Z,2.00
2019-01-04T09:55:34.609Z,1.90
2019-01-04T09:58:04.839Z,2.00
2019-01-04T10:00:34.676Z,2.10
2019-01-04T10:03:04.878Z,2.20
2019-01-04T10:05:35.133Z,2.20
2019-01-04T10:08:05.092Z,2.20
2019-01-04T10:10:35.065Z,2.20
2019-01-04T10:13:05.302Z,2.30
2019-01-04T10:15:35.294Z,2.40
2019-01-04T10:18:05.181Z,2.40
2019-01-04T10:20:35.438Z,2.60
2019-01-04T10:23:05.860Z,2.60
2019-01-04T10:25:35.712Z,2.80
2019-01-04T10:28:05.802Z,2.90
2019-01-04T10:30:35.713Z,2.90
2019-01-04T10:33:05.591Z,2.90
2019-01-04T10:35:35.860Z,2.90
2019-01-04T10:38:05.738Z,3.00
2019-01-04T10:40:35.609Z,3.10
2019-01-04T10:43:05.927Z,3.10
2019-01-04T10:45:36.199Z,3.10
2019-01-04T10:48:06.318Z,3.20
2019-01-04T10:50:36.135Z,3.20
2019-01-04T10:53:06.063Z,3.10
2019-01-04T10:55:36.193Z,3.10
2019-01-04T10:58:06.164Z,3.00
2019-01-04T11:00:36.453Z,3.10
2019-01-04T11:03:06.674Z,3.20
2019-01-04T11:05:36.532Z,3.10
2019-01-04T11:08:06.465Z,2.90
2019-01-04T11:10:36.527Z,2.70
2019-01-04T11:13:06.343Z,2.90
2019-01-04T11:15:36.572Z,3.00
2019-01-04T11:18:09.874Z,3.10
2019-01-04T11:20:43.217Z,3.20
2019-01-04T11:23:49.100Z,3.20
2019-01-04T11:26:45.978Z,3.30
2019-01-04T11:30:06.090Z,3.40
2019-01-04T11:33:07.056Z,3.50
2019-01-04T11:36:12.628Z,3.60
2019-01-04T11:39:05.452Z,3.50
2019-01-04T11:42:43.621Z,3.40
2019-01-04T11:45:27.169Z,3.50
2019-01-04T11:48:32.803Z,3.60
2019-01-04T11:51:31.291Z,3.50
2019-01-04T11:54:03.041Z,3.50
2019-01-04T11:56:32.929Z,3.30
2019-01-04T11:59:02.907Z,3.30
2019-01-04T12:01:33.196Z,3.40
2019-01-04T12:04:03.105Z,3.60
2019-01-04T12:06:33.037Z,3.60
2019-01-04T12:09:03.748Z,3.60
2019-01-04T12:11:33.600Z,3.70
2019-01-04T12:14:03.512Z,3.70
2019-01-04T12:16:33.828Z,3.80
2019-01-04T12:19:03.697Z,3.80
2019-01-04T12:21:33.641Z,3.80
2019-01-04T12:24:03.856Z,3.60
2019-01-04T12:26:33.712Z,3.70
2019-01-04T12:29:03.615Z,3.80
2019-01-04T12:31:33.713Z,3.90
2019-01-04T12:34:03.570Z,4.00
2019-01-04T12:36:33.428Z,4.00
2019-01-04T12:39:04.196Z,4.00
2019-01-04T12:41:34.099Z,4.00
2019-01-04T12:44:03.965Z,4.10
2019-01-04T12:46:34.064Z,4.10
2019-01-04T12:49:03.932Z,4.20
2019-01-04T12:51:33.852Z,4.10
2019-01-04T12:54:04.087Z,4.10
2019-01-04T12:56:33.937Z,4.10
2019-01-04T12:59:03.969Z,4.00
2019-01-04T13:01:34.247Z,4.00
2019-01-04T13:04:04.127Z,4.10
2019-01-04T13:06:34.597Z,4.10
2019-01-04T13:09:06.447Z,4.00
2019-01-04T13:11:36.334Z,3.90
2019-01-04T13:14:06.305Z,4.00
2019-01-04T13:16:36.821Z,4.00
2019-01-04T13:19:06.695Z,4.10
2019-01-04T13:21:36.649Z,4.10
2019-01-04T13:24:06.764Z,4.00
2019-01-04T13:26:36.576Z,3.70
2019-01-04T13:29:06.506Z,3.40
2019-01-04T13:31:37.014Z,3.30
2019-01-04T13:34:06.835Z,3.30
2019-01-04T13:36:36.760Z,3.40
2019-01-04T13:39:11.792Z,3.40
2019-01-04T13:41:41.694Z,3.40
2019-01-04T13:44:11.592Z,3.20
2019-01-04T13:46:42.139Z,3.20
2019-01-04T13:49:12.027Z,3.30
2019-01-04T13:51:41.856Z,3.30
2019-01-04T13:54:12.098Z,3.40
2019-01-04T13:56:42.043Z,3.40
2019-01-04T13:59:11.909Z,3.50
2019-01-04T14:01:42.539Z,3.60
2019-01-04T14:04:12.457Z,3.70
2019-01-04T14:06:42.368Z,3.60
2019-01-04T14:09:12.711Z,3.60
2019-01-04T14:11:42.607Z,3.60
2019-01-04T14:14:12.534Z,3.70
2019-01-04T14:16:42.965Z,3.50
2019-01-04T14:19:12.883Z,3.40
2019-01-04T14:21:42.746Z,3.30
2019-01-04T14:24:12.909Z,3.50
2019-01-04T14:26:42.839Z,3.60
2019-01-04T14:29:12.723Z,3.50
2019-01-04T14:31:43.397Z,3.70
2019-01-04T14:34:13.313Z,3.90
2019-01-04T14:36:43.147Z,4.10
2019-01-04T14:39:13.335Z,4.10
2019-01-04T14:41:43.527Z,4.10
2019-01-04T14:44:13.413Z,4.00
2019-01-04T14:46:43.912Z,3.80
2019-01-04T14:49:14.984Z,3.60
2019-01-04T14:51:45.258Z,3.40
2019-01-04T14:54:15.342Z,3.30
2019-01-04T14:56:45.256Z,3.30
2019-01-04T14:59:16.844Z,3.40
2019-01-04T15:01:47.101Z,3.50
2019-01-04T15:04:17.123Z,3.70
2019-01-04T15:06:47.015Z,4.00
2019-01-04T15:09:16.944Z,3.90
2019-01-04T15:11:47.168Z,3.80
2019-01-04T15:14:17.040Z,3.80
2019-01-04T15:16:47.240Z,3.90
2019-01-04T15:19:17.613Z,3.90
2019-01-04T15:21:47.528Z,3.80
2019-01-04T15:24:17.740Z,3.60
2019-01-04T15:26:47.980Z,3.60
2019-01-04T15:29:17.862Z,3.60
2019-01-04T15:31:48.103Z,3.70
2019-01-04T15:34:18.339Z,3.80
2019-01-04T15:36:48.167Z,3.80
2019-01-04T15:39:18.132Z,3.90
2019-01-04T15:41:48.479Z,3.60
2019-01-04T15:44:18.406Z,3.70
2019-01-04T15:46:48.613Z,3.50
2019-01-04T15:49:18.844Z,3.20
2019-01-04T15:51:48.694Z,3.20
2019-01-04T15:54:18.674Z,3.40
2019-01-04T15:56:48.925Z,3.50
2019-01-04T15:59:18.770Z,3.70
2019-01-04T16:01:48.945Z,3.80
2019-01-04T16:04:19.004Z,4.10
2019-01-04T16:06:48.854Z,4.10
2019-01-04T16:09:18.795Z,4.20
2019-01-04T16:11:49.014Z,4.20
2019-01-04T16:14:18.873Z,4.20
2019-01-04T16:16:48.965Z,3.90
2019-01-04T16:19:18.897Z,3.70
2019-01-04T16:21:48.785Z,3.60
2019-01-04T16:24:19.035Z,3.30
2019-01-04T16:26:48.926Z,3.40
2019-01-04T16:29:18.791Z,3.60
2019-01-04T16:31:49.566Z,3.60
2019-01-04T16:34:19.446Z,3.60
2019-01-04T16:36:49.308Z,3.50
2019-01-04T16:39:19.648Z,3.50
2019-01-04T16:41:49.536Z,3.50
2019-01-04T16:44:19.410Z,3.50
2019-01-04T16:46:49.973Z,3.30
2019-01-04T16:49:20.219Z,3.10
2019-01-04T16:51:50.094Z,3.00
2019-01-04T16:54:20.331Z,2.90
2019-01-04T16:56:50.320Z,2.90
2019-01-04T16:59:20.237Z,2.70
2019-01-04T17:01:50.601Z,2.60
2019-01-04T17:04:20.840Z,2.40
2019-01-04T17:06:50.723Z,2.20
2019-01-04T17:09:20.951Z,2.10
2019-01-04T17:11:50.799Z,2.10
2019-01-04T17:14:20.750Z,2.00
2019-01-04T17:16:51.382Z,1.80
2019-01-04T17:19:21.589Z,1.70
2019-01-04T17:21:51.517Z,1.70
2019-01-04T17:24:21.776Z,1.70
2019-01-04T17:26:51.662Z,1.70
2019-01-04T17:29:21.632Z,1.50
2019-01-04T17:31:52.265Z,1.60
2019-01-04T17:34:22.514Z,1.60
2019-01-04T17:36:52.376Z,1.60
2019-01-04T17:39:22.615Z,1.40
2019-01-04T17:41:52.615Z,1.30
2019-01-04T17:44:22.789Z,1.30
2019-01-04T17:46:52.828Z,1.30
2019-01-04T17:49:23.139Z,1.30
2019-01-04T17:51:53.215Z,1.30
2019-01-04T17:54:23.149Z,1.30
2019-01-04T17:56:53.003Z,1.20
2019-01-04T17:59:23.256Z,1.00
2019-01-04T18:01:53.139Z,1.00
2019-01-04T18:04:23.142Z,0.90
2019-01-04T18:06:53.330Z,1.00
2019-01-04T18:09:23.211Z,1.00
2019-01-04T18:11:53.181Z,1.10
2019-01-04T18:14:23.475Z,1.00
2019-01-04T18:16:53.437Z,1.00
2019-01-04T18:19:23.567Z,1.00
2019-01-04T18:21:54.162Z,1.00
2019-01-04T18:24:24.049Z,1.00
2019-01-04T18:26:54.016Z,1.00
2019-01-04T18:29:24.315Z,1.10
2019-01-04T18:31:54.239Z,1.00
2019-01-04T18:34:24.429Z,0.90
2019-01-04T18:36:54.263Z,0.80
2019-01-04T18:39:24.233Z,0.80
2019-01-04T18:41:54.515Z,0.80
2019-01-04T18:44:24.364Z,0.80
2019-01-04T18:46:54.389Z,0.70
2019-01-04T18:49:24.552Z,0.70
2019-01-04T18:51:54.841Z,0.70
2019-01-04T18:54:24.767Z,0.70
2019-01-04T18:56:55.002Z,0.80
2019-01-04T18:59:24.905Z,0.70
2019-01-04T19:01:54.796Z,0.70
2019-01-04T19:04:24.979Z,0.80
2019-01-04T19:06:55.205Z,0.90
2019-01-04T19:09:25.543Z,0.80
2019-01-04T19:11:55.834Z,0.90
2019-01-04T19:14:25.722Z,0.90
2019-01-04T19:16:55.748Z,0.90
2019-01-04T19:19:26.079Z,0.90
2019-01-04T19:21:56.358Z,0.90
2019-01-04T19:24:26.847Z,0.90
2019-01-04T19:26:57.184Z,1.00
2019-01-04T19:29:27.044Z,1.00
2019-01-04T19:31:56.941Z,1.10
2019-01-04T19:34:27.174Z,1.20
2019-01-04T19:36:57.373Z,1.20
2019-01-04T19:39:27.422Z,1.20
2019-01-04T19:41:57.686Z,1.30
2019-01-04T19:44:27.575Z,1.20
2019-01-04T19:46:57.469Z,1.20
2019-01-04T19:49:27.857Z,1.30
2019-01-04T19:51:58.258Z,1.30
2019-01-04T19:54:28.579Z,1.30
2019-01-04T19:56:59.035Z,1.30
2019-01-04T19:59:28.918Z,1.30
2019-01-04T20:01:58.846Z,1.40
2019-01-04T20:04:29.080Z,1.30
2019-01-04T20:08:04.747Z,1.30
2019-01-04T20:11:48.293Z,1.30
2019-01-04T20:15:35.929Z,1.30
2019-01-04T20:18:33.687Z,1.30
2019-01-04T20:21:22.408Z,1.20
2019-01-04T20:24:14.475Z,1.30
2019-01-04T20:27:15.579Z,1.30
2019-01-04T20:30:01.310Z,1.30
2019-01-04T20:32:49.052Z,1.40
2019-01-04T20:35:36.668Z,1.40
2019-01-04T20:38:24.138Z,1.40
2019-01-04T20:41:19.157Z,1.50
2019-01-04T20:44:06.839Z,1.50
2019-01-04T20:47:01.846Z,1.50
2019-01-04T20:49:49.607Z,1.50
2019-01-04T20:52:37.116Z,1.40
2019-01-04T20:55:24.592Z,1.40
2019-01-04T20:58:08.084Z,1.40
2019-01-04T21:01:05.813Z,1.40
2019-01-04T21:03:53.566Z,1.40
2019-01-04T21:06:49.403Z,1.50
2019-01-04T21:09:37.270Z,1.50
2019-01-04T21:12:26.137Z,1.50
2019-01-04T21:15:21.134Z,1.50
2019-01-04T21:18:12.268Z,1.60
2019-01-04T21:20:59.591Z,1.60
2019-01-04T21:23:51.455Z,1.50
2019-01-04T21:26:50.848Z,1.60
2019-01-04T21:29:38.371Z,1.50
2019-01-04T21:32:25.686Z,1.60
2019-01-04T21:35:17.227Z,1.50
2019-01-04T21:38:09.167Z,1.60
2019-01-04T21:41:02.496Z,1.60
2019-01-04T21:43:57.439Z,1.50
2019-01-04T21:46:46.174Z,1.40
2019-01-04T21:49:44.181Z,1.30
2019-01-04T21:52:31.509Z,1.40
2019-01-04T21:55:32.732Z,1.40
2019-01-04T21:58:24.317Z,1.50
2019-01-04T22:01:12.898Z,1.50
2019-01-04T22:04:08.232Z,1.40
2019-01-04T22:06:55.772Z,1.40
2019-01-04T22:09:43.982Z,1.40
2019-01-04T22:12:31.427Z,1.50
2019-01-04T22:15:21.369Z,1.40
2019-01-04T22:18:22.347Z,1.40
2019-01-04T22:21:13.219Z,1.40
2019-01-04T22:24:20.359Z,1.30
2019-01-04T22:27:17.505Z,1.30
2019-01-04T22:30:09.269Z,1.30
2019-01-04T22:33:04.438Z,1.30
2019-01-04T22:35:55.777Z,1.40
2019-01-04T22:38:43.329Z,1.40
2019-01-04T22:41:47.393Z,1.40
2019-01-04T22:44:29.507Z,1.30
2019-01-04T22:47:16.924Z,1.30
2019-01-04T22:50:04.770Z,1.30
2019-01-04T22:52:53.609Z,1.20
2019-01-04T22:55:41.040Z,1.10
2019-01-04T22:58:34.123Z,1.10
2019-01-04T23:01:24.364Z,1.00
2019-01-04T23:04:19.207Z,1.10
2019-01-04T23:07:09.075Z,1.10
2019-01-04T23:09:56.718Z,1.20
2019-01-04T23:12:54.531Z,1.20
2019-01-04T23:15:43.744Z,1.20
2019-01-04T23:18:32.492Z,1.30
2019-01-04T23:21:56.802Z,1.20
2019-01-04T23:24:52.232Z,1.30
2019-01-04T23:27:39.950Z,1.30
2019-01-04T23:30:32.237Z,1.30
2019-01-04T23:33:20.132Z,1.30
2019-01-04T23:36:12.133Z,1.20
2019-01-04T23:38:59.797Z,1.30
2019-01-04T23:41:51.478Z,1.30
2019-01-04T23:44:40.575Z,1.30
2019-01-04T23:47:32.387Z,1.30
2019-01-04T23:50:24.370Z,1.30
2019-01-04T23:53:31.611Z,1.20
2019-01-04T23:56:20.697Z,1.20
2019-01-04T23:59:18.628Z,1.20
